Nashotah, WI

11:14 AM CDT del 30 Marzo 2015 (GMT -0500)
Waukesha County | | Change Station
CLOSE
Current Station
Aeroporto
Location: Waukesha,
Altitudine: 912 ft
Stazioni meteo nelle vicinanze

Alt. 912 ft 43.04 °N, 88.25 °W | Updated 29 minutes ago

Molto nuvoloso
Molto nuvoloso
48 °F
Sembra 48 °F
N
14
Vento Variabile Vento da Ovest

Oggi
Massima -- | Minima -- °F
--% Possibilità di precip.
Ieri
Massima -- | Minima -- °F
Precip. -- in
6:39 AM 7:17 PM
Gobba a ponente, 80% visible
Pressione 30.00 in
Visibilità 10.0 miglia
Nuvole Molto nuvoloso 8000 ft
Punto di rugiada 28 °F
Umidità 46%
Piovosità 0.00 in
Spessore del manto nevoso Non disponibile.
Raggi UV 3 fuori da 12
Polline 3.50 fuori da 12
Qualità dell'aria Non disponibile.
Flu Activity Non disponibile.
METAR KUES 301545Z 27012KT 10SM BKN080 09/M02 A3000

More Conditions Fewer Conditions

Pressione 30.00 in
Visibilità 10.0 miglia
Nuvole Molto nuvoloso 8000 ft
Punto di rugiada 28 °F
Umidità 46%
Piovosità 0.00 in
Spessore del manto nevoso Non disponibile.
Raggi UV 3 fuori da 12
Polline 3.50 fuori da 12
Qualità dell'aria Non disponibile.
Flu Activity Non disponibile.
METAR KUES 301545Z 27012KT 10SM BKN080 09/M02 A3000

More Conditions Fewer Conditions

10-Day Weather Forecast

Almanac

Astronomia

Mar. 30, 2015 Alba Tramonto
Ora attuale
Crepuscolo civile
Crepuscolo nautico
Crepuscolo astronomico
Luna
Estensione della luce visibile
Lunghezza del giorno
Tomorrow will be .
, % of the Moon is Illuminated

Gli estremi di oggi

State Highs State Lows

Community

WunderPhotos

Upload Photos

1,809,527 foto caricate!

WunderBlogs® & News

Nearby

Qualità dell'aria

  Qualità dell'aria Indice AQ Inquinante
Not available.

Profondità neve

Stazione Profondità Altitudine

Attività sismica

Città  Distanza Mag. Data & Ora
Minimo Magnitudo Mostrato è 2.5.

Temperature delle acque costiere

Località Temperatura

Stations

Stazioni meteo nelle vicinanze

Ubicazione della stazione Temp. Raffreddamento del vento Punto di rugiada Umidità Vento Precip. Alt. Aggiornato Tipo